Time;durP1;ratioP1;P1;durP2;ratioP2;P2;SDS_P1;SDS_P2;PMS_P1;PMS_P2;Temp;Humidity;BMP_temperature;BMP_pressure;BME280_temperature;BME280_humidity;BME280_pressure;Samples;Min_cycle;Max_cycle;Signal;HPM_P1;HPM_P2
2023/03/01 00:01:17;;;;;;;41.70;28.77;;;0.80;99.90;;;;;;5983078;23;20801;-79
2023/03/01 00:03:44;;;;;;;40.60;26.65;;;0.70;99.90;;;;;;5984880;23;20778;-81
2023/03/01 00:06:11;;;;;;;41.90;27.05;;;0.90;99.90;;;;;;5983690;23;20391;-80
2023/03/01 00:08:38;;;;;;;36.23;24.47;;;0.90;99.90;;;;;;5984805;23;20757;-80
2023/03/01 00:11:13;;;;;;;35.70;25.20;;;0.80;99.90;;;;;;5984470;23;20414;-80
2023/03/01 00:13:42;;;;;;;36.45;25.25;;;0.90;99.90;;;;;;5984059;23;20682;-79
2023/03/01 00:16:18;;;;;;;38.03;25.58;;;1.00;99.90;;;;;;5985150;23;20402;-79
2023/03/01 00:18:45;;;;;;;39.80;26.00;;;0.80;99.90;;;;;;5983376;23;20393;-82
2023/03/01 00:21:12;;;;;;;38.60;26.15;;;0.80;99.90;;;;;;6009410;23;20737;-79
2023/03/01 00:23:40;;;;;;;42.08;28.17;;;0.80;99.90;;;;;;5983543;23;20405;-79
2023/03/01 00:26:12;;;;;;;41.17;28.30;;;0.90;99.90;;;;;;6009056;23;20455;-80
2023/03/01 00:28:39;;;;;;;47.38;30.42;;;0.90;99.90;;;;;;5983534;23;20414;-79
2023/03/01 00:31:08;;;;;;;51.42;30.48;;;0.60;99.90;;;;;;5984537;23;20788;-79
2023/03/01 00:33:35;;;;;;;41.60;29.38;;;0.70;99.90;;;;;;5983598;23;20390;-79
2023/03/01 00:36:03;;;;;;;44.50;28.05;;;0.80;99.90;;;;;;5983986;23;20698;-80
2023/03/01 00:38:34;;;;;;;39.65;27.08;;;1.00;99.90;;;;;;5982627;23;20469;-79
2023/03/01 00:41:10;;;;;;;37.25;25.88;;;1.10;99.90;;;;;;5984517;23;20418;-79
2023/03/01 00:43:37;;;;;;;39.97;25.92;;;1.20;99.90;;;;;;5983973;23;20695;-82
2023/03/01 00:46:16;;;;;;;38.47;25.42;;;1.40;99.90;;;;;;5984046;23;20414;-79
2023/03/01 00:48:43;;;;;;;37.50;25.23;;;1.40;99.90;;;;;;5983446;23;20429;-79
2023/03/01 00:51:16;;;;;;;36.23;25.13;;;1.40;99.90;;;;;;5984201;23;20457;-79
2023/03/01 00:53:44;;;;;;;40.58;26.05;;;1.20;99.90;;;;;;5983635;23;20868;-78
2023/03/01 00:56:12;;;;;;;39.40;27.80;;;1.30;99.90;;;;;;6008229;23;20844;-80
2023/03/01 00:58:40;;;;;;;35.47;24.85;;;1.30;99.90;;;;;;5983115;23;20485;-79
2023/03/01 01:01:17;;;;;;;35.25;24.00;;;1.10;99.90;;;;;;5983732;23;20936;-78
2023/03/01 01:04:11;;;;;;;36.33;24.83;;;1.10;99.90;;;;;;5983007;23;20449;-80
2023/03/01 01:06:43;;;;;;;37.40;25.05;;;0.90;99.90;;;;;;5966116;23;20387;-79
2023/03/01 01:09:16;;;;;;;37.05;25.48;;;0.30;99.90;;;;;;5984171;23;20458;-79
2023/03/01 01:11:48;;;;;;;37.20;25.75;;;0.30;99.90;;;;;;5983850;23;20421;-81
2023/03/01 01:14:15;;;;;;;34.80;23.70;;;0.60;99.90;;;;;;5984742;23;20709;-79
2023/03/01 01:16:42;;;;;;;36.90;24.45;;;0.50;99.90;;;;;;5982775;23;20406;-82
2023/03/01 01:19:13;;;;;;;35.00;24.08;;;0.50;99.90;;;;;;5984254;23;20414;-81
2023/03/01 01:21:42;;;;;;;33.20;24.05;;;0.20;99.90;;;;;;5983589;23;20387;-80
2023/03/01 01:24:10;;;;;;;36.15;25.05;;;0.30;99.90;;;;;;5984945;23;20400;-79
2023/03/01 01:26:38;;;;;;;34.90;23.00;;;0.20;99.90;;;;;;6006700;23;20439;-79
2023/03/01 01:29:05;;;;;;;33.33;22.27;;;0.50;99.90;;;;;;6008990;23;20378;-78
2023/03/01 01:31:34;;;;;;;37.45;25.13;;;0.40;99.90;;;;;;5983064;23;20387;-79
2023/03/01 01:34:03;;;;;;;39.55;25.73;;;0.30;99.90;;;;;;5984302;23;20391;-80
2023/03/01 01:36:30;;;;;;;35.55;24.40;;;0.40;99.90;;;;;;5959945;23;20406;-79
2023/03/01 01:38:58;;;;;;;34.43;23.47;;;0.60;99.90;;;;;;5983659;23;20469;-79
2023/03/01 01:41:26;;;;;;;33.58;23.67;;;0.70;99.90;;;;;;5983749;23;20423;-80
2023/03/01 01:44:28;;;;;;;36.38;24.25;;;0.50;99.90;;;;;;5983554;23;20379;-80
2023/03/01 01:47:06;;;;;;;37.88;25.33;;;0.10;99.90;;;;;;5868219;24;20456;-80
2023/03/01 01:49:39;;;;;;;38.20;26.52;;;-0.10;99.90;;;;;;5969914;23;20447;-80
2023/03/01 01:52:27;;;;;;;36.95;25.27;;;0.00;99.90;;;;;;5982880;23;20406;-79
2023/03/01 01:55:04;;;;;;;35.00;24.73;;;0.30;99.90;;;;;;5983066;23;20379;-79
2023/03/01 01:57:41;;;;;;;35.30;23.63;;;0.30;99.90;;;;;;5984036;23;20422;-79
2023/03/01 02:00:15;;;;;;;34.03;22.25;;;0.40;99.90;;;;;;5983739;23;20452;-81
2023/03/01 08:46:33;;;;;;;23.40;17.63;;;6.80;91.40;;;;;;6085363;23;20407;-80
2023/03/01 08:49:04;;;;;;;21.00;17.10;;;6.90;91.60;;;;;;6068765;23;20378;-80
2023/03/01 08:51:36;;;;;;;21.73;16.33;;;6.90;90.90;;;;;;6068527;23;20907;-80
2023/03/01 08:54:05;;;;;;;22.52;17.60;;;7.00;89.40;;;;;;6068588;23;20405;-80
2023/03/01 08:56:32;;;;;;;21.70;16.35;;;7.40;83.60;;;;;;6067983;23;20437;-80
2023/03/01 08:59:00;;;;;;;23.92;17.10;;;7.40;84.30;;;;;;6068979;23;20413;-80
2023/03/01 09:01:26;;;;;;;24.20;17.40;;;7.40;75.10;;;;;;6068178;23;20756;-81
2023/03/01 09:03:53;;;;;;;27.80;19.25;;;6.70;74.60;;;;;;6068159;23;20388;-79
2023/03/01 09:06:21;;;;;;;25.10;18.88;;;6.40;82.70;;;;;;6069526;23;20381;-81
2023/03/01 09:08:50;;;;;;;20.50;16.00;;;6.90;75.90;;;;;;6067538;23;20398;-80
2023/03/01 09:11:19;;;;;;;24.50;15.55;;;6.60;79.60;;;;;;6068271;23;20377;-80
2023/03/01 09:13:47;;;;;;;20.53;15.43;;;6.70;81.00;;;;;;6068176;23;20384;-80
2023/03/01 09:16:17;;;;;;;23.10;17.02;;;6.90;79.30;;;;;;6068437;23;20416;-80
2023/03/01 09:18:45;;;;;;;26.10;17.97;;;7.00;80.30;;;;;;6067763;23;20897;-80
2023/03/01 09:21:15;;;;;;;26.42;19.67;;;6.80;86.50;;;;;;6068887;23;20444;-80
2023/03/01 09:23:44;;;;;;;27.23;19.75;;;6.80;85.40;;;;;;6092141;23;20438;-80
2023/03/01 09:26:16;;;;;;;25.48;19.42;;;6.90;86.90;;;;;;6093385;23;20449;-81
2023/03/01 09:28:44;;;;;;;25.50;18.97;;;7.00;86.70;;;;;;6067408;23;20382;-81
2023/03/01 09:31:12;;;;;;;30.48;21.77;;;6.30;80.50;;;;;;6068728;23;20396;-80
2023/03/01 09:33:41;;;;;;;27.38;19.88;;;6.20;87.30;;;;;;6068072;23;20385;-80
2023/03/01 09:36:13;;;;;;;24.02;18.35;;;6.30;89.90;;;;;;6068688;23;20724;-81
2023/03/01 09:38:40;;;;;;;27.77;19.50;;;6.50;83.60;;;;;;6066985;23;20385;-81
2023/03/01 09:41:33;;;;;;;28.85;21.85;;;6.30;81.90;;;;;;6068093;23;21071;-80
2023/03/01 09:44:15;;;;;;;28.60;19.83;;;6.50;86.50;;;;;;6049457;23;20405;-80
2023/03/01 09:46:45;;;;;;;26.23;20.00;;;7.00;82.60;;;;;;6067495;23;20405;-80
2023/03/01 09:49:22;;;;;;;24.52;19.08;;;7.10;80.90;;;;;;6068667;23;20369;-80
2023/03/01 09:51:59;;;;;;;23.80;17.42;;;7.30;75.70;;;;;;6066098;23;20401;-81
2023/03/01 09:54:27;;;;;;;23.52;17.27;;;7.10;72.40;;;;;;6067133;23;20433;-80
2023/03/01 09:56:56;;;;;;;23.75;16.88;;;7.60;74.70;;;;;;6065788;23;20432;-80
2023/03/01 10:00:00;;;;;;;21.33;16.98;;;7.30;72.00;;;;;;6068035;23;20749;-80
2023/03/01 10:02:43;;;;;;;22.55;14.90;;;7.40;74.50;;;;;;6042019;23;20468;-80
2023/03/01 10:05:31;;;;;;;21.63;16.00;;;7.60;69.50;;;;;;6067093;23;20385;-80
2023/03/01 10:08:26;;;;;;;20.42;15.07;;;8.10;68.10;;;;;;6067069;23;20409;-80
2023/03/01 10:10:53;;;;;;;19.00;14.25;;;8.50;64.80;;;;;;6067031;23;20404;-80
2023/03/01 10:13:39;;;;;;;20.40;14.98;;;8.50;65.10;;;;;;6067813;23;20377;-81
2023/03/01 10:16:14;;;;;;;21.20;15.23;;;8.40;66.00;;;;;;6066662;23;20401;-80
2023/03/01 10:18:43;;;;;;;21.17;15.20;;;8.30;66.80;;;;;;6067450;23;20441;-80
2023/03/01 10:21:15;;;;;;;19.90;15.63;;;8.50;65.10;;;;;;6068833;23;20823;-80
2023/03/01 10:23:42;;;;;;;24.88;18.60;;;8.60;64.10;;;;;;6067951;23;20373;-80
2023/03/01 10:26:38;;;;;;;22.85;17.63;;;8.10;69.30;;;;;;6067943;23;20401;-80
2023/03/01 10:29:10;;;;;;;20.38;15.82;;;8.10;70.60;;;;;;6093246;23;20365;-81
2023/03/01 10:31:40;;;;;;;21.10;16.13;;;7.60;68.00;;;;;;6068045;23;20370;-80
2023/03/01 10:34:14;;;;;;;20.57;15.00;;;8.10;68.10;;;;;;6067342;23;20397;-81
2023/03/01 10:36:42;;;;;;;20.23;15.10;;;7.80;64.50;;;;;;6093667;23;20433;-80
2023/03/01 10:39:16;;;;;;;20.83;16.13;;;8.10;66.40;;;;;;6066954;23;20929;-81
2023/03/01 10:42:04;;;;;;;21.75;17.27;;;7.30;64.80;;;;;;6067876;23;20381;-80
2023/03/01 10:44:47;;;;;;;18.02;14.48;;;7.70;67.40;;;;;;6067241;23;20446;-81
2023/03/01 10:47:23;;;;;;;26.10;15.40;;;8.30;65.60;;;;;;6066912;23;20381;-79
2023/03/01 10:50:17;;;;;;;17.70;13.65;;;8.40;63.60;;;;;;6067420;23;20482;-81
2023/03/01 10:52:56;;;;;;;20.38;14.48;;;8.90;63.00;;;;;;6066527;23;20369;-80
2023/03/01 10:55:36;;;;;;;18.77;14.05;;;8.90;60.30;;;;;;6065795;23;20389;-80
2023/03/01 10:58:09;;;;;;;19.48;14.40;;;9.40;59.70;;;;;;6067857;23;20381;-82
2023/03/01 11:00:52;;;;;;;19.65;14.27;;;9.10;59.80;;;;;;6067292;23;20392;-81
2023/03/01 11:03:37;;;;;;;20.90;14.70;;;8.50;62.00;;;;;;6068700;23;20444;-79
2023/03/01 11:06:13;;;;;;;26.55;18.10;;;8.80;64.50;;;;;;6066861;23;20415;-80
2023/03/01 11:08:46;;;;;;;20.33;14.73;;;9.00;62.00;;;;;;6067618;23;20851;-80
2023/03/01 11:11:16;;;;;;;19.98;14.48;;;9.00;61.30;;;;;;6066217;23;20838;-80
2023/03/01 11:13:59;;;;;;;20.08;14.57;;;9.20;58.90;;;;;;6066826;23;20429;-80
2023/03/01 11:16:37;;;;;;;19.95;14.63;;;9.60;60.80;;;;;;6066747;23;20444;-83
2023/03/01 11:19:17;;;;;;;21.13;15.60;;;9.00;56.50;;;;;;6067149;23;20396;-80
2023/03/01 11:21:59;;;;;;;23.80;16.27;;;9.10;61.30;;;;;;6067506;23;20684;-80
2023/03/01 11:24:40;;;;;;;20.48;15.38;;;10.10;59.00;;;;;;6066915;23;20377;-80
2023/03/01 11:27:18;;;;;;;24.60;16.83;;;10.50;55.90;;;;;;6067309;23;20378;-80
2023/03/01 11:29:51;;;;;;;25.98;16.02;;;10.50;56.00;;;;;;6067943;23;20692;-80
2023/03/01 11:32:22;;;;;;;25.20;17.27;;;10.80;55.00;;;;;;6066884;23;20373;-80
2023/03/01 11:35:01;;;;;;;23.23;17.08;;;10.70;55.20;;;;;;6092777;23;20377;-80
2023/03/01 11:37:49;;;;;;;23.83;17.47;;;10.00;59.30;;;;;;6067647;23;20377;-80
2023/03/01 11:40:21;;;;;;;22.95;17.17;;;9.70;59.30;;;;;;6065949;23;20381;-80
2023/03/01 11:43:12;;;;;;;21.23;16.00;;;10.40;56.40;;;;;;6066724;23;20393;-80
2023/03/01 11:46:14;;;;;;;23.42;16.70;;;10.90;55.50;;;;;;6066331;23;20464;-80
2023/03/01 11:48:59;;;;;;;23.70;17.85;;;11.10;54.30;;;;;;6084991;23;20384;-79
2023/03/01 11:51:47;;;;;;;24.67;18.02;;;11.00;57.90;;;;;;6067855;23;20393;-81
2023/03/01 11:54:39;;;;;;;26.38;19.27;;;9.10;59.00;;;;;;6069398;23;20693;-80
2023/03/01 11:57:11;;;;;;;25.15;18.45;;;9.40;60.50;;;;;;6067923;23;20761;-80
2023/03/01 11:59:47;;;;;;;27.77;20.02;;;10.30;58.30;;;;;;6068058;23;20413;-80
2023/03/01 12:02:33;;;;;;;26.65;19.05;;;10.30;59.40;;;;;;6066867;23;20377;-81
2023/03/01 12:05:41;;;;;;;27.93;19.00;;;10.30;59.20;;;;;;6067365;23;20855;-80
2023/03/01 12:08:23;;;;;;;27.08;19.67;;;9.80;60.30;;;;;;6029260;23;20412;-80
2023/03/01 12:10:56;;;;;;;30.95;21.13;;;9.60;59.90;;;;;;6068772;23;20452;-80
2023/03/01 12:13:59;;;;;;;33.00;21.55;;;10.10;60.00;;;;;;6068646;23;20732;-80
2023/03/01 12:16:40;;;;;;;36.13;23.10;;;10.00;60.00;;;;;;6068121;23;20756;-80
2023/03/01 12:19:37;;;;;;;32.30;21.83;;;9.60;59.00;;;;;;6066681;23;20390;-81
2023/03/01 12:22:15;;;;;;;34.13;23.58;;;9.80;60.30;;;;;;6068677;23;20686;-80
2023/03/01 12:25:03;;;;;;;29.35;20.80;;;10.20;63.10;;;;;;6069182;23;20748;-80
2023/03/01 12:27:55;;;;;;;27.80;20.67;;;10.30;61.10;;;;;;6067894;23;20382;-80
2023/03/01 12:30:32;;;;;;;30.60;20.50;;;10.10;61.80;;;;;;6066490;23;20773;-80
2023/03/01 12:33:20;;;;;;;27.80;21.52;;;10.10;59.20;;;;;;6068194;23;20413;-80
2023/03/01 12:36:09;;;;;;;27.60;21.33;;;10.60;60.70;;;;;;6067866;23;20710;-81
2023/03/01 12:38:57;;;;;;;33.10;22.08;;;10.00;60.10;;;;;;6068611;23;20388;-83
2023/03/01 12:41:50;;;;;;;32.55;22.83;;;9.40;61.80;;;;;;6067947;23;20453;-88
2023/03/01 12:44:36;;;;;;;33.50;22.83;;;9.40;61.70;;;;;;6068809;23;20486;-82
2023/03/01 12:47:44;;;;;;;31.87;22.83;;;9.20;63.20;;;;;;6069242;23;20708;-82
2023/03/01 12:50:19;;;;;;;34.42;24.45;;;9.30;63.70;;;;;;6068731;23;20406;-80
2023/03/01 12:52:55;;;;;;;34.30;24.33;;;9.80;63.30;;;;;;6069539;23;20404;-80
2023/03/01 12:55:27;;;;;;;36.65;25.50;;;10.50;63.60;;;;;;6068699;23;20700;-90
2023/03/01 12:58:24;;;;;;;33.20;23.80;;;10.70;58.70;;;;;;6071021;23;20381;-84
2023/03/01 13:01:15;;;;;;;31.27;22.23;;;10.20;61.60;;;;;;6069563;23;20385;-82
2023/03/01 13:04:14;;;;;;;33.92;23.75;;;10.30;58.80;;;;;;6068027;23;20456;-80
2023/03/01 13:07:08;;;;;;;34.15;23.48;;;10.60;58.20;;;;;;6065731;23;20381;-82
2023/03/01 13:09:43;;;;;;;34.35;23.67;;;10.60;56.60;;;;;;6067490;23;20382;-80
2023/03/01 13:12:47;;;;;;;30.07;22.67;;;9.80;58.70;;;;;;6067974;23;20464;-81
2023/03/01 13:15:23;;;;;;;31.05;23.30;;;9.60;59.10;;;;;;6065580;23;20373;-79
2023/03/01 13:17:53;;;;;;;33.63;24.20;;;9.70;60.80;;;;;;6067192;23;20393;-82
2023/03/01 13:20:26;;;;;;;32.78;23.50;;;10.00;61.00;;;;;;6068444;23;20771;-80
2023/03/01 13:23:14;;;;;;;33.83;24.48;;;10.50;58.50;;;;;;6067085;23;20741;-81
2023/03/01 13:26:07;;;;;;;32.17;22.42;;;10.00;60.90;;;;;;6068313;23;20448;-80
2023/03/01 13:28:34;;;;;;;32.90;24.60;;;10.10;60.10;;;;;;6066398;23;20378;-80
2023/03/01 13:31:03;;;;;;;30.83;23.38;;;10.00;60.30;;;;;;6067918;23;20382;-80
2023/03/01 13:33:30;;;;;;;35.10;24.50;;;10.20;61.20;;;;;;6065956;23;20373;-80
2023/03/01 13:35:58;;;;;;;33.55;23.42;;;9.60;59.70;;;;;;6067234;23;20385;-80
2023/03/01 13:38:48;;;;;;;34.67;25.07;;;9.60;61.00;;;;;;6067439;23;20460;-81
2023/03/01 13:41:36;;;;;;;35.50;25.00;;;9.60;60.90;;;;;;6066254;23;20468;-80
2023/03/01 13:44:23;;;;;;;33.60;23.45;;;10.00;61.20;;;;;;6067962;23;20421;-81
2023/03/01 13:47:15;;;;;;;32.75;23.08;;;10.00;62.50;;;;;;6065631;23;20448;-81
2023/03/01 13:49:53;;;;;;;32.17;23.48;;;10.20;60.40;;;;;;6047299;23;20374;-81
2023/03/01 13:52:43;;;;;;;30.48;22.65;;;9.40;61.40;;;;;;6068844;23;20382;-81
2023/03/01 13:55:27;;;;;;;31.88;22.10;;;9.70;61.00;;;;;;6067226;23;21259;-81
2023/03/01 13:57:58;;;;;;;29.55;21.45;;;9.70;62.40;;;;;;6067299;23;20412;-81
2023/03/01 14:00:26;;;;;;;30.33;21.45;;;9.80;60.20;;;;;;6067963;23;20386;-81
2023/03/01 14:03:17;;;;;;;27.83;20.90;;;10.20;58.90;;;;;;6065993;23;20437;-80
2023/03/01 14:06:26;;;;;;;27.35;20.55;;;10.30;58.90;;;;;;6068542;23;20385;-79
2023/03/01 14:09:27;;;;;;;32.33;23.42;;;10.40;58.80;;;;;;6067949;23;20381;-83
2023/03/01 14:12:04;;;;;;;31.35;21.40;;;10.00;59.30;;;;;;6068106;23;20832;-80
2023/03/01 14:14:38;;;;;;;29.10;21.27;;;9.60;60.50;;;;;;6090348;23;20753;-81
2023/03/01 14:17:26;;;;;;;28.65;20.75;;;9.80;61.10;;;;;;6068484;23;20374;-81
2023/03/01 14:20:00;;;;;;;29.70;21.00;;;9.70;61.40;;;;;;6067325;23;20417;-80
2023/03/01 14:22:33;;;;;;;29.95;21.08;;;10.00;61.40;;;;;;6068557;23;20855;-80
2023/03/01 14:25:03;;;;;;;30.02;20.42;;;9.50;62.90;;;;;;6068088;23;20377;-81
2023/03/01 14:27:41;;;;;;;27.00;20.48;;;9.50;62.40;;;;;;6068264;23;20381;-80
2023/03/01 14:30:22;;;;;;;26.83;19.45;;;9.50;62.30;;;;;;6044637;23;20377;-80
2023/03/01 14:33:01;;;;;;;25.70;19.65;;;9.70;63.70;;;;;;6066974;23;20389;-80
2023/03/01 14:35:34;;;;;;;26.08;20.20;;;9.60;63.30;;;;;;6067438;23;20390;-80
2023/03/01 14:38:02;;;;;;;24.50;19.25;;;9.60;64.00;;;;;;6040913;23;20385;-80
2023/03/01 14:40:29;;;;;;;27.08;19.38;;;9.70;63.50;;;;;;6067767;23;20750;-80
2023/03/01 14:42:59;;;;;;;28.20;20.70;;;9.70;63.60;;;;;;6066469;23;20384;-83
2023/03/01 14:45:32;;;;;;;32.10;22.75;;;9.40;63.50;;;;;;6068485;23;20385;-82
2023/03/01 14:48:03;;;;;;;28.77;20.20;;;9.10;65.40;;;;;;6066010;23;20410;-81
2023/03/01 14:50:36;;;;;;;31.70;23.75;;;9.10;67.10;;;;;;6067074;23;20397;-81
2023/03/01 14:53:07;;;;;;;27.45;19.38;;;9.00;66.40;;;;;;6067338;23;20416;-83
2023/03/01 14:55:41;;;;;;;27.65;19.77;;;8.90;66.50;;;;;;6068008;23;20382;-80
2023/03/01 14:58:20;;;;;;;29.48;21.00;;;8.90;67.30;;;;;;6066423;23;20452;-87
2023/03/01 15:00:55;;;;;;;29.93;21.43;;;8.80;67.10;;;;;;6067712;23;20385;-80
2023/03/01 15:03:35;;;;;;;29.45;20.75;;;8.80;69.30;;;;;;6065641;23;20382;-81
2023/03/01 15:06:03;;;;;;;30.58;21.65;;;8.80;68.50;;;;;;6066447;23;20381;-81
2023/03/01 15:08:32;;;;;;;33.20;22.67;;;8.80;69.50;;;;;;6067627;23;20381;-80
2023/03/01 15:11:04;;;;;;;33.33;23.93;;;8.70;69.30;;;;;;6092324;23;20448;-86
2023/03/01 15:13:35;;;;;;;35.95;25.27;;;8.70;69.40;;;;;;6069248;23;20420;-81
2023/03/01 15:16:21;;;;;;;39.15;26.83;;;8.60;70.30;;;;;;6067478;23;20405;-85
2023/03/01 15:19:00;;;;;;;40.33;27.63;;;8.60;70.70;;;;;;6094065;23;20404;-80
2023/03/01 15:21:41;;;;;;;39.33;26.98;;;8.60;72.30;;;;;;6068507;23;21251;-86
2023/03/01 15:24:19;;;;;;;40.72;27.98;;;8.60;69.50;;;;;;6067632;23;20430;-81
2023/03/01 15:27:06;;;;;;;40.75;27.73;;;8.60;70.30;;;;;;6067829;23;20459;-81
2023/03/01 15:29:40;;;;;;;47.95;32.05;;;8.60;68.90;;;;;;6068399;23;20373;-80
2023/03/01 15:32:24;;;;;;;45.87;30.50;;;8.60;69.50;;;;;;6069217;23;20763;-80
2023/03/01 15:34:51;;;;;;;39.50;26.23;;;8.60;67.50;;;;;;6068943;23;20825;-80
2023/03/01 15:37:44;;;;;;;36.28;24.75;;;8.70;68.90;;;;;;6069258;23;20413;-81
2023/03/01 15:40:31;;;;;;;32.95;23.90;;;8.80;67.50;;;;;;6067363;23;20425;-80
2023/03/01 15:43:03;;;;;;;33.53;24.17;;;8.90;65.80;;;;;;6092678;23;20407;-80
2023/03/01 15:45:33;;;;;;;34.22;23.55;;;8.90;66.60;;;;;;6068907;23;20407;-81
2023/03/01 15:48:03;;;;;;;34.13;23.73;;;8.80;66.90;;;;;;6068069;23;20416;-80
2023/03/01 15:50:35;;;;;;;32.50;22.30;;;8.90;65.60;;;;;;6068632;23;20381;-81
2023/03/01 15:53:11;;;;;;;31.80;22.25;;;8.80;64.60;;;;;;6068005;23;20385;-81
2023/03/01 15:55:38;;;;;;;31.92;22.85;;;9.00;64.40;;;;;;6068832;23;20749;-80
2023/03/01 15:58:24;;;;;;;32.33;22.98;;;8.90;63.50;;;;;;6043842;23;20437;-81
2023/03/01 16:00:58;;;;;;;29.85;21.00;;;8.70;63.60;;;;;;6044714;23;20393;-81
2023/03/01 16:03:28;;;;;;;28.45;20.80;;;8.80;64.30;;;;;;6069119;23;20381;-81
2023/03/01 16:05:55;;;;;;;28.90;20.83;;;8.80;63.40;;;;;;6067742;23;20409;-80
2023/03/01 16:08:23;;;;;;;29.08;20.17;;;8.50;64.10;;;;;;6069011;23;20405;-80
2023/03/01 16:10:51;;;;;;;29.73;20.40;;;8.70;64.50;;;;;;6068118;23;20393;-79
2023/03/01 16:13:19;;;;;;;39.50;24.93;;;8.80;64.00;;;;;;6069908;23;20412;-79
2023/03/01 16:15:45;;;;;;;36.67;25.50;;;8.80;64.70;;;;;;6069014;23;20385;-79
2023/03/01 16:18:14;;;;;;;29.40;21.40;;;8.70;63.90;;;;;;6067602;23;20685;-80
2023/03/01 16:20:41;;;;;;;29.17;19.80;;;8.80;64.10;;;;;;6066917;23;20391;-80
2023/03/01 16:23:10;;;;;;;27.77;20.67;;;8.70;64.50;;;;;;6068429;23;20382;-80
2023/03/01 16:25:37;;;;;;;29.98;22.23;;;8.70;64.10;;;;;;6069410;23;20385;-80
2023/03/01 16:28:09;;;;;;;31.23;21.23;;;8.40;64.10;;;;;;6067760;23;20408;-81
2023/03/01 16:30:39;;;;;;;32.15;20.17;;;8.50;64.50;;;;;;6070032;23;20397;-80
2023/03/01 16:33:08;;;;;;;30.83;20.63;;;8.60;64.30;;;;;;6068965;23;20378;-80
2023/03/01 16:35:59;;;;;;;29.42;20.08;;;8.70;64.80;;;;;;6093719;23;20739;-81
2023/03/01 16:38:27;;;;;;;28.58;19.50;;;8.90;64.40;;;;;;6068779;23;20692;-80
2023/03/01 16:40:54;;;;;;;32.10;21.67;;;8.80;64.70;;;;;;6068044;23;20760;-81
2023/03/01 16:43:21;;;;;;;41.60;24.23;;;8.40;66.90;;;;;;6095168;23;20452;-81
2023/03/01 16:45:48;;;;;;;50.78;28.08;;;8.20;67.40;;;;;;6069212;23;20378;-80
2023/03/01 16:48:15;;;;;;;48.77;28.53;;;8.10;68.50;;;;;;6068884;23;20711;-81
2023/03/01 16:50:42;;;;;;;40.70;24.92;;;8.10;69.50;;;;;;6069374;23;20377;-80
2023/03/01 16:53:09;;;;;;;41.88;28.23;;;8.00;72.50;;;;;;6068702;23;20381;-81
2023/03/01 16:55:37;;;;;;;57.00;36.50;;;7.90;75.50;;;;;;6069103;23;20433;-80
2023/03/01 16:58:05;;;;;;;42.28;28.65;;;7.90;75.40;;;;;;6068510;23;20747;-80
2023/03/01 17:00:32;;;;;;;37.67;26.63;;;7.80;82.40;;;;;;6069104;23;20389;-82
2023/03/01 17:02:59;;;;;;;42.33;32.70;;;7.70;81.20;;;;;;6069140;23;20389;-82
2023/03/01 17:05:27;;;;;;;33.80;24.52;;;7.60;81.20;;;;;;6076159;23;20371;-83
2023/03/01 17:07:55;;;;;;;35.80;24.35;;;7.40;84.50;;;;;;6079948;23;20832;-85
2023/03/01 17:10:24;;;;;;;30.83;22.02;;;7.30;90.40;;;;;;6096368;23;20374;-82
2023/03/01 17:12:51;;;;;;;39.35;26.42;;;7.30;93.10;;;;;;6069424;23;20404;-81
2023/03/01 17:15:18;;;;;;;36.37;25.70;;;7.10;94.70;;;;;;6045258;23;20401;-83
2023/03/01 17:17:47;;;;;;;43.40;32.92;;;7.00;95.40;;;;;;6069550;23;20444;-88
2023/03/01 17:20:15;;;;;;;87.40;55.85;;;7.00;93.70;;;;;;6068501;23;20879;-81
2023/03/01 17:22:42;;;;;;;44.15;28.92;;;6.90;98.50;;;;;;6069438;23;20395;-79
2023/03/01 17:25:10;;;;;;;35.83;25.30;;;7.10;97.30;;;;;;6044415;23;20807;-81
2023/03/01 17:27:38;;;;;;;33.88;24.35;;;7.30;98.10;;;;;;6045099;23;20433;-80
2023/03/01 17:30:08;;;;;;;35.33;24.65;;;7.10;99.90;;;;;;6068488;23;20377;-80
2023/03/01 17:32:35;;;;;;;35.63;24.77;;;7.00;99.90;;;;;;6069035;23;20741;-80
2023/03/01 17:35:02;;;;;;;35.97;25.25;;;7.30;99.90;;;;;;6068983;23;20437;-80
2023/03/01 17:37:29;;;;;;;34.85;24.00;;;7.40;99.90;;;;;;6068037;23;20381;-83
2023/03/01 17:39:56;;;;;;;34.38;23.38;;;7.70;98.70;;;;;;6068690;23;20378;-82
2023/03/01 17:42:23;;;;;;;35.13;24.33;;;7.40;98.50;;;;;;6093208;23;20381;-81
2023/03/01 17:44:50;;;;;;;33.15;22.20;;;6.90;99.90;;;;;;6068825;23;20440;-81
2023/03/01 17:47:17;;;;;;;31.42;22.00;;;6.90;99.90;;;;;;6068241;23;20441;-81
2023/03/01 17:49:44;;;;;;;30.98;21.92;;;6.90;99.90;;;;;;6069147;23;20439;-82
2023/03/01 17:52:11;;;;;;;34.00;24.55;;;6.80;99.90;;;;;;6068355;23;20370;-82
2023/03/01 17:54:39;;;;;;;37.45;25.25;;;6.50;99.90;;;;;;6069469;23;20373;-83
2023/03/01 17:57:06;;;;;;;36.65;24.83;;;6.20;99.90;;;;;;6068834;23;20867;-81
2023/03/01 17:59:36;;;;;;;38.63;26.20;;;6.20;99.90;;;;;;6067102;23;20700;-81
2023/03/01 18:02:03;;;;;;;35.95;25.52;;;6.10;99.90;;;;;;6068790;23;20457;-80
2023/03/01 18:04:31;;;;;;;38.70;26.00;;;6.10;99.90;;;;;;6067702;23;20460;-81
2023/03/01 18:06:58;;;;;;;35.78;23.42;;;6.20;99.90;;;;;;6069135;23;20457;-81
2023/03/01 18:09:29;;;;;;;32.60;22.50;;;6.20;99.90;;;;;;6068042;23;20373;-81
2023/03/01 18:11:57;;;;;;;33.20;21.65;;;6.30;99.90;;;;;;6068826;23;20420;-81
2023/03/01 18:14:28;;;;;;;31.55;22.92;;;6.50;99.90;;;;;;6068189;23;20373;-80
2023/03/01 18:16:55;;;;;;;34.13;23.50;;;6.40;99.90;;;;;;6068746;23;20407;-83
2023/03/01 18:19:22;;;;;;;31.80;22.15;;;6.20;99.90;;;;;;6068131;23;20789;-81
2023/03/01 18:21:49;;;;;;;32.53;23.10;;;6.00;99.90;;;;;;6069059;23;20439;-81
2023/03/01 18:24:16;;;;;;;34.67;23.40;;;6.00;99.90;;;;;;6093242;23;20385;-81
2023/03/01 18:26:43;;;;;;;38.15;24.48;;;6.00;99.90;;;;;;6068821;23;20741;-81
2023/03/01 18:29:10;;;;;;;40.92;26.58;;;5.90;99.90;;;;;;6068579;23;20409;-82
2023/03/01 18:31:37;;;;;;;39.90;25.42;;;6.00;99.90;;;;;;6066377;23;20697;-81
2023/03/01 18:34:05;;;;;;;36.90;25.53;;;5.90;99.90;;;;;;6068839;23;20482;-81
2023/03/01 18:36:34;;;;;;;42.40;27.48;;;6.00;99.90;;;;;;6067925;23;20385;-81
2023/03/01 18:39:04;;;;;;;36.67;24.60;;;6.00;99.90;;;;;;6068352;23;20386;-81
2023/03/01 18:41:31;;;;;;;36.30;24.35;;;6.30;99.90;;;;;;6065993;23;20886;-82
2023/03/01 18:43:59;;;;;;;33.33;23.92;;;6.20;99.90;;;;;;6066855;23;20385;-81
2023/03/01 18:46:26;;;;;;;34.28;23.83;;;6.20;99.90;;;;;;6065646;23;20444;-81
2023/03/01 18:48:54;;;;;;;37.03;25.10;;;6.20;99.90;;;;;;6067583;23;20740;-81
2023/03/01 18:51:27;;;;;;;39.25;27.08;;;6.00;99.90;;;;;;6066520;23;20373;-82
2023/03/01 18:53:57;;;;;;;36.35;25.02;;;5.80;99.90;;;;;;6067591;23;20432;-81
2023/03/01 18:56:25;;;;;;;37.05;24.65;;;5.80;99.90;;;;;;6066448;23;20456;-81
2023/03/01 18:58:53;;;;;;;34.47;24.60;;;5.70;99.90;;;;;;6066103;23;20390;-81
2023/03/01 19:01:24;;;;;;;34.92;22.85;;;5.70;99.90;;;;;;6064941;23;20389;-82
2023/03/01 19:03:52;;;;;;;32.15;21.15;;;6.00;99.90;;;;;;6091993;23;20382;-81
2023/03/01 19:06:21;;;;;;;31.33;21.27;;;6.00;99.90;;;;;;6065474;23;20413;-81
2023/03/01 19:08:49;;;;;;;31.45;20.92;;;5.90;99.90;;;;;;6066836;23;20412;-81
2023/03/01 19:11:17;;;;;;;28.30;19.27;;;5.90;99.90;;;;;;6065255;23;20414;-81
2023/03/01 19:13:45;;;;;;;32.08;21.65;;;5.90;99.90;;;;;;6065514;23;20374;-80
2023/03/01 19:16:17;;;;;;;31.42;21.35;;;5.70;99.90;;;;;;6043467;23;20441;-81
2023/03/01 19:18:53;;;;;;;29.77;20.83;;;5.80;99.90;;;;;;6066261;23;20378;-82
2023/03/01 19:21:24;;;;;;;34.15;22.17;;;5.90;99.90;;;;;;6066459;23;20385;-82
2023/03/01 19:23:52;;;;;;;31.58;22.08;;;5.90;99.90;;;;;;6044706;23;20369;-82
2023/03/01 19:26:21;;;;;;;32.10;22.67;;;5.80;99.90;;;;;;6066656;23;20392;-82
2023/03/01 19:28:51;;;;;;;34.40;23.58;;;5.50;99.90;;;;;;6043198;23;20384;-80
2023/03/01 19:31:22;;;;;;;35.17;24.85;;;5.60;99.90;;;;;;6064561;23;20737;-81
2023/03/01 19:33:50;;;;;;;36.33;24.52;;;5.60;99.90;;;;;;6066448;23;20448;-82
2023/03/01 19:36:21;;;;;;;38.50;26.77;;;5.60;99.90;;;;;;6044302;23;20440;-82
2023/03/01 19:38:48;;;;;;;40.88;25.80;;;5.50;99.90;;;;;;6043761;23;20388;-80
2023/03/01 19:41:21;;;;;;;38.17;24.90;;;5.30;99.90;;;;;;6067575;23;20441;-81
2023/03/01 19:43:48;;;;;;;38.38;25.05;;;5.30;99.90;;;;;;6067174;23;20436;-80
2023/03/01 19:46:15;;;;;;;35.20;23.47;;;5.40;99.90;;;;;;6064929;23;20397;-81
2023/03/01 19:48:43;;;;;;;35.28;23.38;;;5.50;99.90;;;;;;6043829;23;20378;-80
2023/03/01 19:51:11;;;;;;;34.67;23.33;;;5.50;99.90;;;;;;6068730;23;20369;-80
2023/03/01 19:53:39;;;;;;;34.65;23.50;;;5.30;99.90;;;;;;6042978;23;20385;-80
2023/03/01 19:56:08;;;;;;;36.80;25.33;;;5.10;99.90;;;;;;6045061;23;20409;-81